createdAt,value
2023-05-11T00:00:29.069Z,928.23
2023-05-11T00:01:29.273Z,928.25
2023-05-11T00:02:29.759Z,928.27
2023-05-11T00:03:29.491Z,928.28
2023-05-11T00:04:29.258Z,928.28
2023-05-11T00:05:28.948Z,928.30
2023-05-11T00:06:28.959Z,928.30
2023-05-11T00:07:29.340Z,928.29
2023-05-11T00:08:29.008Z,928.25
2023-05-11T00:09:29.913Z,928.23
2023-05-11T00:10:29.604Z,928.22
2023-05-11T00:11:29.862Z,928.21
2023-05-11T00:12:29.860Z,928.21
2023-05-11T00:13:29.066Z,928.22
2023-05-11T00:14:29.367Z,928.25
2023-05-11T00:15:28.869Z,928.28
2023-05-11T00:16:28.970Z,928.31
2023-05-11T00:17:29.626Z,928.33
2023-05-11T00:18:29.271Z,928.34
2023-05-11T00:19:28.844Z,928.34
2023-05-11T00:20:29.045Z,928.35
2023-05-11T00:21:28.797Z,928.35
2023-05-11T00:22:28.788Z,928.36
2023-05-11T00:23:28.758Z,928.35
2023-05-11T00:24:29.588Z,928.36
2023-05-11T00:25:28.797Z,928.34
2023-05-11T00:26:29.599Z,928.34
2023-05-11T00:27:28.815Z,928.35
2023-05-11T00:28:28.938Z,928.32
2023-05-11T00:29:31.334Z,928.28
2023-05-11T00:30:28.715Z,928.25
2023-05-11T00:31:30.338Z,928.23
2023-05-11T00:32:29.396Z,928.22
2023-05-11T00:33:28.621Z,928.22
2023-05-11T00:34:28.638Z,928.20
2023-05-11T00:35:28.562Z,928.16
2023-05-11T00:36:29.607Z,928.14
2023-05-11T00:37:28.564Z,928.16
2023-05-11T00:38:29.328Z,928.18
2023-05-11T00:39:28.522Z,928.20
2023-05-11T00:40:28.565Z,928.20
2023-05-11T00:41:28.572Z,928.19
2023-05-11T00:42:29.440Z,928.22
2023-05-11T00:43:29.360Z,928.23
2023-05-11T00:44:28.516Z,928.23
2023-05-11T00:45:29.116Z,928.23
2023-05-11T00:46:28.592Z,928.23
2023-05-11T00:47:28.572Z,928.23
2023-05-11T00:48:28.540Z,928.23
2023-05-11T00:49:29.668Z,928.22
2023-05-11T00:50:28.430Z,928.22
2023-05-11T00:51:28.633Z,928.23
2023-05-11T00:52:29.208Z,928.25
2023-05-11T00:53:29.107Z,928.25
2023-05-11T00:54:29.116Z,928.27
2023-05-11T00:55:28.391Z,928.25
2023-05-11T00:56:28.442Z,928.24
2023-05-11T00:57:28.374Z,928.24
2023-05-11T00:58:28.625Z,928.26
2023-05-11T00:59:28.323Z,928.27
2023-05-11T01:00:29.404Z,928.26
2023-05-11T01:01:28.345Z,928.27
2023-05-11T01:02:28.389Z,928.27
2023-05-11T01:03:28.369Z,928.28
2023-05-11T01:04:28.291Z,928.30
2023-05-11T01:05:28.269Z,928.32
2023-05-11T01:06:28.278Z,928.31
2023-05-11T01:07:28.281Z,928.31
2023-05-11T01:08:29.108Z,928.29
2023-05-11T01:09:28.260Z,928.27
2023-05-11T01:10:28.278Z,928.25
2023-05-11T01:11:28.248Z,928.22
2023-05-11T01:12:28.284Z,928.18
2023-05-11T01:13:28.219Z,928.13
2023-05-11T01:14:28.194Z,928.08
2023-05-11T01:15:28.161Z,928.06
2023-05-11T01:16:28.166Z,928.04
2023-05-11T01:17:28.235Z,928.01
2023-05-11T01:18:28.184Z,928.00
2023-05-11T01:19:28.158Z,927.99
2023-05-11T01:20:28.165Z,927.97
2023-05-11T01:21:28.886Z,927.93
2023-05-11T01:22:28.074Z,927.87
2023-05-11T01:23:28.291Z,927.81
2023-05-11T01:24:28.504Z,927.75
2023-05-11T01:25:28.107Z,927.72
2023-05-11T01:26:28.032Z,927.71
2023-05-11T01:27:28.043Z,927.70
2023-05-11T01:28:28.047Z,927.70
2023-05-11T01:29:27.991Z,927.70
2023-05-11T01:30:28.030Z,927.67
2023-05-11T01:31:28.423Z,927.67
2023-05-11T01:32:28.026Z,927.66
2023-05-11T01:33:28.030Z,927.65
2023-05-11T01:34:27.979Z,927.64
2023-05-11T01:35:27.960Z,927.63
2023-05-11T01:36:27.961Z,927.63
2023-05-11T01:37:28.019Z,927.62
2023-05-11T01:38:27.951Z,927.64
2023-05-11T01:39:27.930Z,927.65
2023-05-11T01:40:27.904Z,927.66
2023-05-11T01:41:27.906Z,927.66
2023-05-11T01:42:27.853Z,927.66
2023-05-11T01:43:27.881Z,927.66
2023-05-11T01:44:27.821Z,927.69
2023-05-11T01:45:28.026Z,927.72
2023-05-11T01:46:28.196Z,927.75
2023-05-11T01:47:27.994Z,927.77
2023-05-11T01:48:27.892Z,927.79
2023-05-11T01:49:27.889Z,927.78
2023-05-11T01:50:27.780Z,927.75
2023-05-11T01:51:27.811Z,927.70
2023-05-11T01:52:27.818Z,927.68
2023-05-11T01:53:28.518Z,927.65
2023-05-11T01:54:27.828Z,927.65
2023-05-11T01:55:27.731Z,927.65
2023-05-11T01:56:27.735Z,927.64
2023-05-11T01:57:27.767Z,927.63
2023-05-11T01:58:27.847Z,927.60
2023-05-11T01:59:27.755Z,927.57
2023-05-11T02:00:27.986Z,927.55
2023-05-11T02:01:27.652Z,927.55
2023-05-11T02:02:27.730Z,927.55
2023-05-11T02:03:27.771Z,927.56
2023-05-11T02:04:27.638Z,927.57
2023-05-11T02:05:28.435Z,927.58
2023-05-11T02:06:27.693Z,927.57
2023-05-11T02:07:27.578Z,927.55
2023-05-11T02:08:27.622Z,927.53
2023-05-11T02:09:27.595Z,927.50
2023-05-11T02:10:27.611Z,927.49
2023-05-11T02:11:27.926Z,927.49
2023-05-11T02:12:27.512Z,927.49
2023-05-11T02:13:27.553Z,927.49
2023-05-11T02:14:27.526Z,927.47
2023-05-11T02:15:27.529Z,927.45
2023-05-11T02:16:27.566Z,927.43
2023-05-11T02:17:28.521Z,927.42
2023-05-11T02:18:27.493Z,927.40
2023-05-11T02:19:27.489Z,927.38
2023-05-11T02:20:27.464Z,927.37
2023-05-11T02:21:27.495Z,927.38
2023-05-11T02:22:27.416Z,927.37
2023-05-11T02:23:27.938Z,927.35
2023-05-11T02:24:27.430Z,927.32
2023-05-11T02:25:27.398Z,927.31
2023-05-11T02:26:27.419Z,927.31
2023-05-11T02:27:27.407Z,927.32
2023-05-11T02:28:27.411Z,927.30
2023-05-11T02:29:27.437Z,927.28
2023-05-11T02:30:27.350Z,927.28
2023-05-11T02:31:27.378Z,927.28
2023-05-11T02:32:27.360Z,927.28
2023-05-11T02:33:27.355Z,927.28
2023-05-11T02:34:27.390Z,927.25
2023-05-11T02:35:27.370Z,927.22
2023-05-11T02:36:27.320Z,927.18
2023-05-11T02:37:27.359Z,927.15
2023-05-11T02:38:27.292Z,927.13
2023-05-11T02:39:27.310Z,927.13
2023-05-11T02:40:27.337Z,927.13
2023-05-11T02:41:27.376Z,927.12
2023-05-11T02:42:27.314Z,927.10
2023-05-11T02:43:27.358Z,927.08
2023-05-11T02:44:27.349Z,927.07
2023-05-11T02:45:27.221Z,927.04
2023-05-11T02:46:27.245Z,927.00
2023-05-11T02:47:27.324Z,926.96
2023-05-11T02:48:27.138Z,926.93
2023-05-11T02:49:27.145Z,926.91
2023-05-11T02:50:27.157Z,926.90
2023-05-11T02:51:27.170Z,926.91
2023-05-11T02:52:27.175Z,926.92
2023-05-11T02:53:27.171Z,926.92
2023-05-11T02:54:27.077Z,926.91
2023-05-11T02:55:27.104Z,926.90
2023-05-11T02:56:27.085Z,926.89
2023-05-11T02:57:27.107Z,926.91
2023-05-11T02:58:27.147Z,926.93
2023-05-11T02:59:27.030Z,926.95
2023-05-11T03:00:27.084Z,926.94
2023-05-11T03:01:29.595Z,926.91
2023-05-11T03:02:27.122Z,926.89
2023-05-11T03:03:27.110Z,926.89
2023-05-11T03:04:27.038Z,926.90
2023-05-11T03:05:26.957Z,926.90
2023-05-11T03:06:26.953Z,926.88
2023-05-11T03:07:26.977Z,926.84
2023-05-11T03:08:26.957Z,926.80
2023-05-11T03:09:26.930Z,926.78
2023-05-11T03:10:26.889Z,926.76
2023-05-11T03:11:26.925Z,926.75
2023-05-11T03:12:26.924Z,926.74
2023-05-11T03:13:26.898Z,926.73
2023-05-11T03:14:26.897Z,926.73
2023-05-11T03:15:26.905Z,926.73
2023-05-11T03:16:26.920Z,926.75
2023-05-11T03:17:26.879Z,926.76
2023-05-11T03:18:26.884Z,926.76
2023-05-11T03:19:26.844Z,926.77
2023-05-11T03:20:26.866Z,926.80
2023-05-11T03:21:26.839Z,926.83
2023-05-11T03:22:26.801Z,926.84
2023-05-11T03:23:26.786Z,926.85
2023-05-11T03:24:26.773Z,926.84
2023-05-11T03:25:26.810Z,926.82
2023-05-11T03:26:26.894Z,926.82
2023-05-11T03:27:27.018Z,926.83
2023-05-11T03:28:26.739Z,926.87
2023-05-11T03:29:27.516Z,926.88
2023-05-11T03:30:26.721Z,926.86
2023-05-11T03:31:26.758Z,926.83
2023-05-11T03:32:26.802Z,926.79
2023-05-11T03:33:26.964Z,926.74
2023-05-11T03:34:26.661Z,926.69
2023-05-11T03:35:26.663Z,926.66
2023-05-11T03:36:26.670Z,926.64
2023-05-11T03:37:26.675Z,926.63
2023-05-11T03:38:26.683Z,926.62
2023-05-11T03:39:26.996Z,926.62
2023-05-11T03:40:26.601Z,926.61
2023-05-11T03:41:26.609Z,926.61
2023-05-11T03:42:26.623Z,926.61
2023-05-11T03:43:26.593Z,926.63
2023-05-11T03:44:26.614Z,926.64
2023-05-11T03:45:26.930Z,926.64
2023-05-11T03:46:26.604Z,926.65
2023-05-11T03:47:26.539Z,926.65
2023-05-11T03:48:26.534Z,926.66
2023-05-11T03:49:26.538Z,926.67
2023-05-11T03:50:26.568Z,926.67
2023-05-11T03:51:26.534Z,926.67
2023-05-11T03:52:26.464Z,926.67
2023-05-11T03:54:41.102Z,926.69
2023-05-11T03:55:39.098Z,926.70
2023-05-11T03:56:39.096Z,926.70
2023-05-11T03:57:39.208Z,926.69
2023-05-11T03:58:39.088Z,926.66
2023-05-11T03:59:39.098Z,926.64
2023-05-11T04:00:39.013Z,926.63
2023-05-11T04:01:39.028Z,926.60
2023-05-11T04:02:39.074Z,926.59
2023-05-11T04:03:39.161Z,926.57
2023-05-11T04:04:39.082Z,926.56
2023-05-11T04:05:39.040Z,926.55
2023-05-11T04:06:38.949Z,926.55
2023-05-11T04:07:38.948Z,926.55
2023-05-11T04:08:38.967Z,926.56
2023-05-11T04:09:38.967Z,926.56
2023-05-11T04:10:38.963Z,926.55
2023-05-11T04:11:39.086Z,926.54
2023-05-11T04:12:38.993Z,926.53
2023-05-11T04:13:38.897Z,926.52
2023-05-11T04:14:38.903Z,926.50
2023-05-11T04:15:38.948Z,926.51
2023-05-11T04:16:39.604Z,926.50
2023-05-11T04:17:38.931Z,926.50
2023-05-11T04:18:38.945Z,926.51
2023-05-11T04:19:38.838Z,926.51
2023-05-11T04:20:38.824Z,926.53
2023-05-11T04:21:38.831Z,926.53
2023-05-11T04:22:38.829Z,926.52
2023-05-11T04:23:38.883Z,926.50
2023-05-11T04:24:38.765Z,926.49
2023-05-11T04:25:38.749Z,926.49
2023-05-11T04:26:38.766Z,926.50
2023-05-11T04:27:38.741Z,926.50
2023-05-11T04:28:38.775Z,926.52
2023-05-11T04:29:38.782Z,926.54
2023-05-11T04:30:38.715Z,926.56
2023-05-11T04:31:38.736Z,926.58
2023-05-11T04:32:38.757Z,926.60
2023-05-11T04:33:38.727Z,926.62
2023-05-11T04:34:38.651Z,926.63
2023-05-11T04:35:38.639Z,926.62
2023-05-11T04:36:38.644Z,926.62
2023-05-11T04:37:38.646Z,926.62
2023-05-11T04:38:38.612Z,926.64
2023-05-11T04:39:38.621Z,926.66
2023-05-11T04:40:38.583Z,926.68
2023-05-11T04:41:39.190Z,926.69
2023-05-11T04:42:38.538Z,926.68
2023-05-11T04:43:38.534Z,926.67
2023-05-11T04:44:38.557Z,926.65
2023-05-11T04:45:38.570Z,926.64
2023-05-11T04:46:38.657Z,926.61
2023-05-11T04:47:38.582Z,926.59
2023-05-11T04:48:38.516Z,926.57
2023-05-11T04:49:38.535Z,926.56
2023-05-11T04:50:38.487Z,926.56
2023-05-11T04:51:38.457Z,926.56
2023-05-11T04:52:38.506Z,926.57
2023-05-11T04:53:38.447Z,926.57
2023-05-11T04:54:38.411Z,926.58
2023-05-11T04:55:38.425Z,926.58
2023-05-11T04:56:38.385Z,926.58
2023-05-11T04:57:38.400Z,926.58
2023-05-11T04:58:38.396Z,926.58
2023-05-11T04:59:38.407Z,926.59
2023-05-11T05:00:38.453Z,926.60
2023-05-11T05:01:38.506Z,926.59
2023-05-11T05:02:38.425Z,926.58
2023-05-11T05:03:38.389Z,926.57
2023-05-11T05:04:38.314Z,926.56
2023-05-11T05:05:38.336Z,926.54
2023-05-11T05:06:38.395Z,926.53
2023-05-11T05:07:38.303Z,926.51
2023-05-11T05:08:38.283Z,926.52
2023-05-11T05:09:38.361Z,926.52
2023-05-11T05:10:38.254Z,926.50
2023-05-11T05:11:38.264Z,926.49
2023-05-11T05:12:38.268Z,926.48
2023-05-11T05:13:38.219Z,926.48
2023-05-11T05:14:38.206Z,926.47
2023-05-11T05:15:38.286Z,926.47
2023-05-11T05:16:38.235Z,926.46
2023-05-11T05:17:38.367Z,926.46
2023-05-11T05:18:38.259Z,926.43
2023-05-11T05:19:38.146Z,926.42
2023-05-11T05:20:38.182Z,926.40
2023-05-11T05:21:38.137Z,926.37
2023-05-11T05:22:38.146Z,926.36
2023-05-11T05:23:38.250Z,926.36
2023-05-11T05:24:38.104Z,926.36
2023-05-11T05:25:38.093Z,926.35
2023-05-11T05:26:38.131Z,926.35
2023-05-11T05:27:38.145Z,926.37
2023-05-11T05:28:38.072Z,926.39
2023-05-11T05:29:38.105Z,926.42
2023-05-11T05:30:38.098Z,926.44
2023-05-11T05:31:38.122Z,926.46
2023-05-11T05:32:38.152Z,926.48
2023-05-11T05:33:37.988Z,926.49
2023-05-11T05:34:38.001Z,926.51
2023-05-11T05:35:37.996Z,926.53
2023-05-11T05:36:37.973Z,926.55
2023-05-11T05:37:37.951Z,926.55
2023-05-11T05:38:37.956Z,926.52
2023-05-11T05:39:37.998Z,926.49
2023-05-11T05:40:37.923Z,926.45
2023-05-11T05:41:37.972Z,926.42
2023-05-11T05:42:37.919Z,926.40
2023-05-11T05:43:37.890Z,926.38
2023-05-11T05:44:37.942Z,926.36
2023-05-11T05:45:37.890Z,926.34
2023-05-11T05:46:38.118Z,926.36
2023-05-11T05:47:37.922Z,926.38
2023-05-11T05:48:37.864Z,926.38
2023-05-11T05:49:37.876Z,926.37
2023-05-11T05:50:37.879Z,926.37
2023-05-11T05:51:37.825Z,926.39
2023-05-11T05:52:37.941Z,926.40
2023-05-11T05:53:37.861Z,926.39
2023-05-11T05:54:37.806Z,926.37
2023-05-11T05:55:37.813Z,926.36
2023-05-11T05:56:37.820Z,926.36
2023-05-11T05:57:37.834Z,926.37
2023-05-11T05:58:37.821Z,926.38
2023-05-11T05:59:37.847Z,926.38
2023-05-11T06:00:37.784Z,926.36
2023-05-11T06:01:37.745Z,926.34
2023-05-11T06:02:37.856Z,926.33
2023-05-11T06:03:37.872Z,926.33
2023-05-11T06:04:37.814Z,926.34
2023-05-11T06:05:37.792Z,926.35
2023-05-11T06:06:37.678Z,926.34
2023-05-11T06:07:37.686Z,926.30
2023-05-11T06:08:37.707Z,926.26
2023-05-11T06:09:39.127Z,926.24
2023-05-11T06:10:38.398Z,926.24
2023-05-11T06:11:38.242Z,926.25
2023-05-11T06:12:37.620Z,926.25
2023-05-11T06:13:37.627Z,926.25
2023-05-11T06:14:37.685Z,926.24
2023-05-11T06:15:37.642Z,926.21
2023-05-11T06:16:37.757Z,926.19
2023-05-11T06:17:37.627Z,926.16
2023-05-11T06:18:37.615Z,926.16
2023-05-11T06:19:37.578Z,926.15
2023-05-11T06:20:37.568Z,926.13
2023-05-11T06:21:37.519Z,926.13
2023-05-11T06:22:37.491Z,926.14
2023-05-11T06:23:37.608Z,926.14
2023-05-11T06:24:37.490Z,926.14
2023-05-11T06:25:37.515Z,926.14
2023-05-11T06:26:37.508Z,926.13
2023-05-11T06:27:37.427Z,926.12
2023-05-11T06:28:37.438Z,926.11
2023-05-11T06:29:37.418Z,926.09
2023-05-11T06:30:37.450Z,926.07
2023-05-11T06:31:37.531Z,926.04
2023-05-11T06:32:38.418Z,926.02
2023-05-11T06:33:37.438Z,926.02
2023-05-11T06:34:37.363Z,926.02
2023-05-11T06:35:37.379Z,926.03
2023-05-11T06:36:37.388Z,926.03
2023-05-11T06:37:37.380Z,926.03
2023-05-11T06:38:37.376Z,926.03
2023-05-11T06:39:37.387Z,926.02
2023-05-11T06:40:37.311Z,926.03
2023-05-11T06:41:37.327Z,926.04
2023-05-11T06:42:37.325Z,926.06
2023-05-11T06:43:37.344Z,926.08
2023-05-11T06:44:37.324Z,926.09
2023-05-11T06:45:37.354Z,926.09
2023-05-11T06:46:37.567Z,926.10
2023-05-11T06:47:37.262Z,926.10
2023-05-11T06:48:37.581Z,926.09
2023-05-11T06:49:37.274Z,926.08
2023-05-11T06:50:37.681Z,926.07
2023-05-11T06:51:37.279Z,926.06
2023-05-11T06:52:37.201Z,926.07
2023-05-11T06:53:37.170Z,926.07
2023-05-11T06:54:37.196Z,926.07
2023-05-11T06:55:37.289Z,926.07
2023-05-11T06:56:37.200Z,926.06
2023-05-11T06:57:37.135Z,926.07
2023-05-11T06:58:37.141Z,926.07
2023-05-11T06:59:37.132Z,926.06
2023-05-11T07:00:37.138Z,926.03
2023-05-11T07:01:37.299Z,926.00
2023-05-11T07:02:37.196Z,925.97
2023-05-11T07:03:37.056Z,925.94
2023-05-11T07:04:37.079Z,925.92
2023-05-11T07:05:37.094Z,925.91
2023-05-11T07:06:37.055Z,925.89
2023-05-11T07:07:37.191Z,925.88
2023-05-11T07:08:37.090Z,925.87
2023-05-11T07:09:37.005Z,925.86
2023-05-11T07:10:37.025Z,925.86
2023-05-11T07:11:37.012Z,925.86
2023-05-11T07:12:37.022Z,925.86
2023-05-11T07:13:37.031Z,925.86
2023-05-11T07:14:37.025Z,925.85
2023-05-11T07:15:36.929Z,925.84
2023-05-11T07:16:36.980Z,925.82
2023-05-11T07:17:37.079Z,925.81
2023-05-11T07:18:36.986Z,925.81
2023-05-11T07:19:37.677Z,925.81
2023-05-11T07:20:36.859Z,925.82
2023-05-11T07:21:36.879Z,925.82
2023-05-11T07:22:37.519Z,925.83
2023-05-11T07:23:36.882Z,925.85
2023-05-11T07:24:36.965Z,925.88
2023-05-11T07:25:36.916Z,925.91
2023-05-11T07:26:36.833Z,925.92
2023-05-11T07:27:36.925Z,925.94
2023-05-11T07:28:36.817Z,925.95
2023-05-11T07:29:36.818Z,925.95
2023-05-11T07:30:36.837Z,925.95
2023-05-11T07:31:37.302Z,925.95
2023-05-11T07:32:36.969Z,925.94
2023-05-11T07:33:36.755Z,925.94
2023-05-11T07:34:36.779Z,925.93
2023-05-11T07:35:36.771Z,925.92
2023-05-11T07:36:36.790Z,925.92
2023-05-11T07:37:37.388Z,925.92
2023-05-11T07:38:36.681Z,925.91
2023-05-11T07:39:36.861Z,925.91
2023-05-11T07:40:36.708Z,925.91
2023-05-11T07:41:36.722Z,925.92
2023-05-11T07:42:36.677Z,925.93
2023-05-11T07:43:36.684Z,925.94
2023-05-11T07:44:36.597Z,925.97
2023-05-11T07:45:36.616Z,925.99
2023-05-11T07:46:36.623Z,926.01
2023-05-11T07:47:37.097Z,926.03
2023-05-11T07:48:36.648Z,926.03
2023-05-11T07:49:43.417Z,926.04
2023-05-11T07:50:36.550Z,926.03
2023-05-11T07:51:36.554Z,926.03
2023-05-11T07:52:36.555Z,926.02
2023-05-11T07:53:36.578Z,926.02
2023-05-11T07:54:36.554Z,926.03
2023-05-11T07:55:36.569Z,926.03
2023-05-11T07:56:36.488Z,926.04
2023-05-11T07:57:36.490Z,926.05
2023-05-11T07:58:36.497Z,926.06
2023-05-11T07:59:36.514Z,926.07
2023-05-11T08:00:36.496Z,926.07
2023-05-11T08:01:36.419Z,926.08
2023-05-11T08:02:36.516Z,926.08
2023-05-11T08:03:36.487Z,926.08
2023-05-11T08:04:36.425Z,926.08
2023-05-11T08:05:36.519Z,926.07
2023-05-11T08:06:36.474Z,926.06
2023-05-11T08:07:37.830Z,926.05
2023-05-11T08:08:36.345Z,926.06
2023-05-11T08:09:36.367Z,926.07
2023-05-11T08:10:36.360Z,926.08
2023-05-11T08:11:36.365Z,926.09
2023-05-11T08:12:36.290Z,926.09
2023-05-11T08:13:36.308Z,926.10
2023-05-11T08:14:36.278Z,926.10
2023-05-11T08:15:36.288Z,926.11
2023-05-11T08:16:36.406Z,926.12
2023-05-11T08:17:36.376Z,926.12
2023-05-11T08:18:36.265Z,926.12
2023-05-11T08:19:36.231Z,926.12
2023-05-11T08:20:36.354Z,926.12
2023-05-11T08:21:36.294Z,926.11
2023-05-11T08:22:36.298Z,926.11
2023-05-11T08:23:36.242Z,926.12
2023-05-11T08:24:36.214Z,926.13
2023-05-11T08:25:36.264Z,926.14
2023-05-11T08:26:36.181Z,926.14
2023-05-11T08:27:36.218Z,926.14
2023-05-11T08:28:36.190Z,926.13
2023-05-11T08:29:36.192Z,926.12
2023-05-11T08:30:36.195Z,926.13
2023-05-11T08:31:36.268Z,926.13
2023-05-11T08:32:46.682Z,926.14
2023-05-11T08:33:38.686Z,926.13
2023-05-11T08:34:36.256Z,926.14
2023-05-11T08:35:36.091Z,926.14
2023-05-11T08:36:36.134Z,926.15
2023-05-11T08:37:36.291Z,926.16
2023-05-11T08:38:36.103Z,926.17
2023-05-11T08:39:46.819Z,926.18
2023-05-11T08:40:36.110Z,926.18
2023-05-11T08:41:36.060Z,926.18
2023-05-11T08:42:36.066Z,926.19
2023-05-11T08:43:36.145Z,926.20
2023-05-11T08:44:36.071Z,926.22
2023-05-11T08:45:36.095Z,926.25
2023-05-11T08:46:35.997Z,926.27
2023-05-11T08:47:36.000Z,926.28
2023-05-11T08:48:36.027Z,926.30
2023-05-11T08:49:36.016Z,926.31
2023-05-11T08:50:36.154Z,926.33
2023-05-11T08:51:35.990Z,926.34
2023-05-11T08:52:35.991Z,926.35
2023-05-11T08:53:35.941Z,926.34
2023-05-11T08:54:35.946Z,926.32
2023-05-11T08:55:35.905Z,926.31
2023-05-11T08:56:35.969Z,926.31
2023-05-11T08:57:35.980Z,926.31
2023-05-11T08:58:35.873Z,926.31
2023-05-11T08:59:35.893Z,926.31
2023-05-11T09:00:35.944Z,926.29
2023-05-11T09:01:35.870Z,926.28
2023-05-11T09:02:36.028Z,926.27
2023-05-11T09:03:35.834Z,926.29
2023-05-11T09:04:35.811Z,926.30
2023-05-11T09:05:35.970Z,926.30
2023-05-11T09:06:35.848Z,926.30
2023-05-11T09:07:35.891Z,926.30
2023-05-11T09:08:35.798Z,926.30
2023-05-11T09:09:35.765Z,926.33
2023-05-11T09:10:35.740Z,926.34
2023-05-11T09:11:36.272Z,926.35
2023-05-11T09:12:35.771Z,926.37
2023-05-11T09:13:36.040Z,926.37
2023-05-11T09:14:35.686Z,926.37
2023-05-11T09:15:37.878Z,926.38
2023-05-11T09:16:37.356Z,926.39
2023-05-11T09:17:35.713Z,926.39
2023-05-11T09:18:35.717Z,926.42
2023-05-11T09:19:35.628Z,926.44
2023-05-11T09:20:35.727Z,926.46
2023-05-11T09:21:35.736Z,926.48
2023-05-11T09:22:36.679Z,926.49
2023-05-11T09:23:35.637Z,926.49
2023-05-11T09:24:36.162Z,926.49
2023-05-11T09:25:35.562Z,926.51
2023-05-11T09:26:35.675Z,926.52
2023-05-11T09:27:35.613Z,926.53
2023-05-11T09:28:36.259Z,926.53
2023-05-11T09:29:35.567Z,926.53
2023-05-11T09:30:35.492Z,926.54
2023-05-11T09:31:35.612Z,926.55
2023-05-11T09:32:35.501Z,926.56
2023-05-11T09:33:35.503Z,926.57
2023-05-11T09:34:35.553Z,926.57
2023-05-11T09:35:35.489Z,926.58
2023-05-11T09:36:35.428Z,926.60
2023-05-11T09:37:35.436Z,926.61
2023-05-11T09:38:35.484Z,926.63
2023-05-11T09:39:42.066Z,926.64
2023-05-11T09:40:35.391Z,926.65
2023-05-11T09:41:35.818Z,926.67
2023-05-11T09:42:35.363Z,926.69
2023-05-11T09:43:35.415Z,926.70
2023-05-11T09:44:35.420Z,926.72
2023-05-11T09:45:35.384Z,926.74
2023-05-11T09:46:35.431Z,926.75
2023-05-11T09:47:35.588Z,926.76
2023-05-11T09:48:35.355Z,926.78
2023-05-11T09:49:35.303Z,926.79
2023-05-11T09:50:35.317Z,926.79
2023-05-11T09:51:35.255Z,926.80
2023-05-11T09:52:35.286Z,926.79
2023-05-11T09:53:35.272Z,926.80
2023-05-11T09:54:35.239Z,926.80
2023-05-11T09:55:35.286Z,926.80
2023-05-11T09:56:35.207Z,926.80
2023-05-11T09:57:35.207Z,926.81
2023-05-11T09:58:35.199Z,926.82
2023-05-11T09:59:35.210Z,926.82
2023-05-11T10:00:35.284Z,926.83
2023-05-11T10:01:35.838Z,926.84
2023-05-11T10:02:35.231Z,926.85
2023-05-11T10:03:35.247Z,926.86
2023-05-11T10:04:35.219Z,926.87
2023-05-11T10:05:35.126Z,926.86
2023-05-11T10:06:35.740Z,926.86
2023-05-11T10:07:35.262Z,926.85
2023-05-11T10:08:35.054Z,926.84
2023-05-11T10:09:35.173Z,926.82
2023-05-11T10:10:35.182Z,926.82
2023-05-11T10:11:35.183Z,926.82
2023-05-11T10:12:35.015Z,926.82
2023-05-11T10:13:35.038Z,926.83
2023-05-11T10:14:35.020Z,926.82
2023-05-11T10:15:35.053Z,926.85
2023-05-11T10:16:35.104Z,926.87
2023-05-11T10:17:35.087Z,926.88
2023-05-11T10:18:35.101Z,926.90
2023-05-11T10:19:34.976Z,926.92
2023-05-11T10:20:34.957Z,926.94
2023-05-11T10:21:34.946Z,926.97
2023-05-11T10:22:34.994Z,926.98
2023-05-11T10:23:34.959Z,927.00
2023-05-11T10:24:34.908Z,927.00
2023-05-11T10:25:34.984Z,926.99
2023-05-11T10:26:34.882Z,926.98
2023-05-11T10:27:34.882Z,926.97
2023-05-11T10:28:35.207Z,926.97
2023-05-11T10:29:34.897Z,926.95
2023-05-11T10:30:34.832Z,926.95
2023-05-11T10:31:34.909Z,926.95
2023-05-11T10:32:34.841Z,926.94
2023-05-11T10:33:34.840Z,926.95
2023-05-11T10:34:34.827Z,926.96
2023-05-11T10:35:34.846Z,926.97
2023-05-11T10:36:34.847Z,927.00
2023-05-11T10:37:34.862Z,927.02
2023-05-11T10:38:34.757Z,927.02
2023-05-11T10:39:34.762Z,927.03
2023-05-11T10:40:34.800Z,927.03
2023-05-11T10:41:34.770Z,927.03
2023-05-11T10:42:34.715Z,927.01
2023-05-11T10:43:34.742Z,927.01
2023-05-11T10:44:34.690Z,927.02
2023-05-11T10:45:34.724Z,927.01
2023-05-11T10:46:34.757Z,927.02
2023-05-11T10:47:34.662Z,927.03
2023-05-11T10:48:34.719Z,927.05
2023-05-11T10:49:34.714Z,927.07
2023-05-11T10:50:34.657Z,927.07
2023-05-11T10:51:34.631Z,927.08
2023-05-11T10:52:34.651Z,927.08
2023-05-11T10:53:34.599Z,927.08
2023-05-11T10:54:34.608Z,927.08
2023-05-11T10:55:34.660Z,927.09
2023-05-11T10:56:34.572Z,927.10
2023-05-11T10:57:34.670Z,927.11
2023-05-11T10:58:34.509Z,927.12
2023-05-11T10:59:34.590Z,927.13
2023-05-11T11:00:34.523Z,927.15
2023-05-11T11:01:34.585Z,927.14
2023-05-11T11:02:34.536Z,927.14
2023-05-11T11:03:35.011Z,927.14
2023-05-11T11:04:34.457Z,927.15
2023-05-11T11:05:34.608Z,927.16
2023-05-11T11:06:34.426Z,927.18
2023-05-11T11:07:34.455Z,927.19
2023-05-11T11:08:34.458Z,927.19
2023-05-11T11:09:34.471Z,927.19
2023-05-11T11:10:34.393Z,927.18
2023-05-11T11:11:34.379Z,927.17
2023-05-11T11:12:34.371Z,927.18
2023-05-11T11:13:34.413Z,927.18
2023-05-11T11:14:34.405Z,927.18
2023-05-11T11:15:34.395Z,927.17
2023-05-11T11:16:34.364Z,927.15
2023-05-11T11:17:34.357Z,927.14
2023-05-11T11:18:34.395Z,927.14
2023-05-11T11:19:34.358Z,927.14
2023-05-11T11:20:34.529Z,927.14
2023-05-11T11:21:34.282Z,927.14
2023-05-11T11:22:34.354Z,927.14
2023-05-11T11:23:34.252Z,927.14
2023-05-11T11:24:34.244Z,927.14
2023-05-11T11:25:34.280Z,927.15
2023-05-11T11:26:34.300Z,927.16
2023-05-11T11:27:34.212Z,927.17
2023-05-11T11:28:34.197Z,927.18
2023-05-11T11:29:34.199Z,927.19
2023-05-11T11:30:34.283Z,927.20
2023-05-11T11:31:34.399Z,927.22
2023-05-11T11:32:34.237Z,927.23
2023-05-11T11:33:34.210Z,927.23
2023-05-11T11:34:34.157Z,927.24
2023-05-11T11:35:34.136Z,927.24
2023-05-11T11:36:35.687Z,927.25
2023-05-11T11:37:34.284Z,927.26
2023-05-11T11:38:34.163Z,927.27
2023-05-11T11:39:34.163Z,927.29
2023-05-11T11:40:46.968Z,927.31
2023-05-11T11:41:34.162Z,927.31
2023-05-11T11:42:34.056Z,927.32
2023-05-11T11:43:34.819Z,927.32
2023-05-11T11:44:34.088Z,927.32
2023-05-11T11:45:34.086Z,927.34
2023-05-11T11:46:34.070Z,927.33
2023-05-11T11:47:34.007Z,927.33
2023-05-11T11:48:34.045Z,927.35
2023-05-11T11:49:34.102Z,927.35
2023-05-11T11:50:34.011Z,927.34
2023-05-11T11:51:34.023Z,927.34
2023-05-11T11:52:33.955Z,927.34
2023-05-11T11:53:33.908Z,927.32
2023-05-11T11:54:33.951Z,927.31
2023-05-11T11:55:33.950Z,927.31
2023-05-11T11:56:34.063Z,927.30
2023-05-11T11:57:33.953Z,927.32
2023-05-11T11:58:34.513Z,927.32
2023-05-11T11:59:33.868Z,927.31
2023-05-11T12:00:33.871Z,927.30
2023-05-11T12:01:33.852Z,927.30
2023-05-11T12:02:34.013Z,927.30
2023-05-11T12:03:34.604Z,927.31
2023-05-11T12:04:33.844Z,927.32
2023-05-11T12:05:33.914Z,927.33
2023-05-11T12:06:33.838Z,927.35
2023-05-11T12:07:33.792Z,927.38
2023-05-11T12:08:33.761Z,927.42
2023-05-11T12:09:33.912Z,927.45
2023-05-11T12:10:33.749Z,927.48
2023-05-11T12:11:33.714Z,927.51
2023-05-11T12:12:33.984Z,927.53
2023-05-11T12:13:33.722Z,927.55
2023-05-11T12:14:34.071Z,927.58
2023-05-11T12:15:33.840Z,927.60
2023-05-11T12:16:33.710Z,927.60
2023-05-11T12:17:33.688Z,927.61
2023-05-11T12:18:33.720Z,927.62
2023-05-11T12:19:33.716Z,927.63
2023-05-11T12:20:33.672Z,927.65
2023-05-11T12:21:34.319Z,927.65
2023-05-11T12:22:33.620Z,927.66
2023-05-11T12:23:33.650Z,927.65
2023-05-11T12:24:33.742Z,927.64
2023-05-11T12:25:33.569Z,927.65
2023-05-11T12:26:35.016Z,927.65
2023-05-11T12:27:33.609Z,927.65
2023-05-11T12:28:33.837Z,927.65
2023-05-11T12:29:33.623Z,927.64